Time;durP1;ratioP1;P1;durP2;ratioP2;P2;SDS_P1;SDS_P2;PMS_P1;PMS_P2;Temp;Humidity;BMP_temperature;BMP_pressure;BME280_temperature;BME280_humidity;BME280_pressure;Samples;Min_cycle;Max_cycle;Signal;HPM_P1;HPM_P2
2023/12/03 00:00:40;;;;;;;31.63;14.43;;;;;;;;;;7367972;19;20445;-77
2023/12/03 00:03:07;;;;;;;26.40;14.18;;;;;;;;;;7386387;19;20484;-77
2023/12/03 00:05:33;;;;;;;26.95;12.93;;;;;;;;;;7362809;19;20011;-77
2023/12/03 00:07:59;;;;;;;28.35;12.70;;;;;;;;;;7364415;19;20018;-77
2023/12/03 00:10:24;;;;;;;27.90;14.10;;;;;;;;;;7363678;19;20002;-77
2023/12/03 00:12:49;;;;;;;26.98;13.48;;;;;;;;;;7364719;19;20006;-77
2023/12/03 00:15:15;;;;;;;31.25;14.32;;;;;;;;;;7385308;19;20082;-77
2023/12/03 00:17:40;;;;;;;24.42;12.88;;;;;;;;;;7364664;19;20779;-77
2023/12/03 00:20:06;;;;;;;25.73;11.82;;;;;;;;;;7365450;19;20014;-77
2023/12/03 00:22:31;;;;;;;23.05;12.43;;;;;;;;;;7365191;19;20007;-77
2023/12/03 00:24:57;;;;;;;25.50;12.95;;;;;;;;;;7366829;19;20144;-78
2023/12/03 00:27:22;;;;;;;26.13;12.95;;;;;;;;;;7389401;19;19998;-77
2023/12/03 00:29:47;;;;;;;26.70;12.95;;;;;;;;;;7365539;19;20010;-77
2023/12/03 00:32:13;;;;;;;28.08;13.43;;;;;;;;;;7360824;19;20014;-77
2023/12/03 00:34:38;;;;;;;28.08;13.23;;;;;;;;;;7370726;19;20570;-75
2023/12/03 00:37:04;;;;;;;26.65;12.63;;;;;;;;;;7372326;19;20081;-76
2023/12/03 00:39:29;;;;;;;27.05;12.75;;;;;;;;;;7388764;19;20656;-75
2023/12/03 00:41:54;;;;;;;28.80;13.30;;;;;;;;;;7365103;19;20006;-75
2023/12/03 00:44:20;;;;;;;29.10;14.00;;;;;;;;;;7374578;19;20039;-75
2023/12/03 00:46:45;;;;;;;28.85;14.35;;;;;;;;;;7373578;19;20010;-75
2023/12/03 00:49:10;;;;;;;29.27;14.38;;;;;;;;;;7368655;19;20012;-76
2023/12/03 00:51:36;;;;;;;30.25;14.40;;;;;;;;;;7379117;19;20010;-76
2023/12/03 00:54:01;;;;;;;31.05;14.65;;;;;;;;;;7373937;19;20063;-75
2023/12/03 00:56:26;;;;;;;36.13;15.60;;;;;;;;;;7368928;19;20326;-75
2023/12/03 00:58:52;;;;;;;27.77;13.65;;;;;;;;;;7371514;19;20757;-75
2023/12/03 01:01:19;;;;;;;24.08;12.88;;;;;;;;;;7372267;19;20010;-75
2023/12/03 01:03:44;;;;;;;26.60;12.73;;;;;;;;;;7368785;19;20010;-75
2023/12/03 01:06:10;;;;;;;27.80;13.85;;;;;;;;;;7392677;19;20110;-75
2023/12/03 01:08:35;;;;;;;24.77;12.57;;;;;;;;;;7371385;19;20010;-76
2023/12/03 01:11:04;;;;;;;27.35;13.10;;;;;;;;;;7371330;19;20014;-76
2023/12/03 01:13:29;;;;;;;29.38;13.60;;;;;;;;;;7368909;19;20351;-76
2023/12/03 01:15:55;;;;;;;30.60;14.07;;;;;;;;;;7368405;19;20012;-76
2023/12/03 01:18:20;;;;;;;27.33;13.50;;;;;;;;;;7393193;19;20333;-76
2023/12/03 01:20:45;;;;;;;26.48;13.48;;;;;;;;;;7370026;19;20082;-76
2023/12/03 01:23:11;;;;;;;29.95;14.63;;;;;;;;;;7369407;19;20051;-75
2023/12/03 01:25:36;;;;;;;30.85;14.15;;;;;;;;;;7369564;19;20393;-75
2023/12/03 01:28:01;;;;;;;30.85;15.23;;;;;;;;;;7370402;19;20499;-75
2023/12/03 01:30:27;;;;;;;30.55;14.73;;;;;;;;;;7391621;19;20022;-78
2023/12/03 01:32:52;;;;;;;25.75;14.13;;;;;;;;;;7368790;19;20047;-75
2023/12/03 01:35:17;;;;;;;31.52;15.00;;;;;;;;;;7368061;19;20083;-77
2023/12/03 01:37:43;;;;;;;30.52;15.00;;;;;;;;;;7372245;19;20335;-75
2023/12/03 01:40:09;;;;;;;29.25;13.70;;;;;;;;;;7374262;19;20018;-78
2023/12/03 01:42:34;;;;;;;30.25;14.68;;;;;;;;;;7401023;19;20111;-77
2023/12/03 01:45:00;;;;;;;30.00;14.38;;;;;;;;;;7380448;19;20095;-77
2023/12/03 01:47:26;;;;;;;25.73;14.32;;;;;;;;;;7379873;19;20006;-77
2023/12/03 01:49:52;;;;;;;29.65;14.25;;;;;;;;;;7375681;19;20010;-77
2023/12/03 01:52:17;;;;;;;28.10;13.35;;;;;;;;;;7373187;19;20186;-77
2023/12/03 01:54:44;;;;;;;23.38;12.88;;;;;;;;;;7370552;19;20010;-77
2023/12/03 01:57:10;;;;;;;27.52;13.82;;;;;;;;;;7390588;19;20034;-76
2023/12/03 01:59:35;;;;;;;27.05;14.27;;;;;;;;;;7366515;19;20090;-76
2023/12/03 02:02:02;;;;;;;26.50;13.70;;;;;;;;;;7369756;19;20492;-76
2023/12/03 02:04:27;;;;;;;28.42;13.65;;;;;;;;;;7367390;19;20459;-76
2023/12/03 02:06:52;;;;;;;27.10;14.70;;;;;;;;;;7366809;19;20010;-76
2023/12/03 02:09:19;;;;;;;29.33;14.85;;;;;;;;;;7390832;19;20007;-76
2023/12/03 02:11:45;;;;;;;27.08;13.68;;;;;;;;;;7366371;19;20014;-76
2023/12/03 02:14:10;;;;;;;26.73;14.73;;;;;;;;;;7366979;19;20094;-76
2023/12/03 02:16:36;;;;;;;24.48;12.45;;;;;;;;;;7368336;19;20014;-76
2023/12/03 02:19:02;;;;;;;28.77;14.20;;;;;;;;;;7368802;19;20022;-76
2023/12/03 02:21:28;;;;;;;24.60;13.23;;;;;;;;;;7390050;19;20006;-76
2023/12/03 02:23:53;;;;;;;26.90;12.90;;;;;;;;;;7366328;19;20007;-76
2023/12/03 02:26:18;;;;;;;27.60;13.48;;;;;;;;;;7366171;19;20464;-75
2023/12/03 02:28:43;;;;;;;25.10;13.52;;;;;;;;;;7367851;19;20008;-75
2023/12/03 02:31:09;;;;;;;26.92;13.45;;;;;;;;;;7367189;19;20524;-77
2023/12/03 02:33:34;;;;;;;23.42;13.07;;;;;;;;;;7389109;19;20031;-77
2023/12/03 02:36:01;;;;;;;25.40;12.88;;;;;;;;;;7365483;19;20020;-75
2023/12/03 02:38:26;;;;;;;25.23;13.52;;;;;;;;;;7367702;19;20011;-75
2023/12/03 02:40:52;;;;;;;28.63;13.43;;;;;;;;;;7368829;19;20030;-75
2023/12/03 02:43:17;;;;;;;27.00;13.75;;;;;;;;;;7367946;19;20021;-75
2023/12/03 02:45:43;;;;;;;27.92;14.02;;;;;;;;;;7366569;19;20006;-76
2023/12/03 02:48:08;;;;;;;27.27;13.85;;;;;;;;;;7388101;19;20002;-76
2023/12/03 02:50:33;;;;;;;28.08;14.27;;;;;;;;;;7366636;19;20362;-75
2023/12/03 02:52:59;;;;;;;26.38;13.45;;;;;;;;;;7366181;19;20564;-76
2023/12/03 02:55:24;;;;;;;30.40;15.23;;;;;;;;;;7364959;19;20015;-76
2023/12/03 02:57:49;;;;;;;28.95;13.85;;;;;;;;;;7367018;19;19995;-75
2023/12/03 03:00:15;;;;;;;27.88;14.52;;;;;;;;;;7389879;19;20009;-76
2023/12/03 03:02:40;;;;;;;28.42;14.82;;;;;;;;;;7365397;19;20011;-75
2023/12/03 03:05:06;;;;;;;30.80;15.18;;;;;;;;;;7365568;19;20006;-76
2023/12/03 03:07:32;;;;;;;30.73;14.73;;;;;;;;;;7365305;19;20010;-75
2023/12/03 03:09:57;;;;;;;31.08;15.48;;;;;;;;;;7363965;19;20018;-75
2023/12/03 03:12:22;;;;;;;29.45;15.02;;;;;;;;;;7386167;19;20960;-76
2023/12/03 03:14:48;;;;;;;28.42;14.40;;;;;;;;;;7363450;19;20008;-76
2023/12/03 03:17:13;;;;;;;31.95;15.27;;;;;;;;;;7361811;19;20014;-76
2023/12/03 03:19:42;;;;;;;26.63;14.18;;;;;;;;;;7364344;19;20014;-75
2023/12/03 03:22:10;;;;;;;33.47;15.45;;;;;;;;;;7363723;19;20022;-77
2023/12/03 03:24:36;;;;;;;28.45;14.13;;;;;;;;;;7381345;19;20031;-76
2023/12/03 03:27:01;;;;;;;31.40;15.05;;;;;;;;;;7374136;19;20007;-76
2023/12/03 03:29:26;;;;;;;35.55;16.75;;;;;;;;;;7365755;19;20472;-76
2023/12/03 03:31:52;;;;;;;34.22;15.50;;;;;;;;;;7375684;19;20086;-76
2023/12/03 03:34:17;;;;;;;35.85;16.65;;;;;;;;;;7370620;19;20014;-76
2023/12/03 03:36:42;;;;;;;36.85;17.67;;;;;;;;;;7365424;19;20022;-76
2023/12/03 03:39:07;;;;;;;32.20;15.32;;;;;;;;;;7388148;19;20029;-76
2023/12/03 03:41:33;;;;;;;33.50;16.60;;;;;;;;;;7366752;19;20010;-76
2023/12/03 03:43:58;;;;;;;35.22;16.98;;;;;;;;;;7366125;19;20035;-76
2023/12/03 03:46:24;;;;;;;37.03;16.77;;;;;;;;;;7364990;19;20030;-76
2023/12/03 03:48:50;;;;;;;35.80;16.30;;;;;;;;;;7366368;19;20338;-76
2023/12/03 03:51:15;;;;;;;35.70;17.20;;;;;;;;;;7389785;19;20071;-76
2023/12/03 03:53:40;;;;;;;36.28;16.90;;;;;;;;;;7372269;19;20014;-76
2023/12/03 03:56:10;;;;;;;37.97;17.27;;;;;;;;;;7369362;19;20041;-76
2023/12/03 03:58:38;;;;;;;37.53;16.88;;;;;;;;;;7368266;19;20010;-76
2023/12/03 04:01:05;;;;;;;37.75;17.70;;;;;;;;;;7366533;19;20007;-76
2023/12/03 04:03:30;;;;;;;41.20;18.23;;;;;;;;;;7386474;19;20011;-76
2023/12/03 04:05:55;;;;;;;38.53;18.30;;;;;;;;;;7364362;19;20385;-76
2023/12/03 04:08:21;;;;;;;35.17;15.95;;;;;;;;;;7365230;19;20464;-76
2023/12/03 04:10:46;;;;;;;38.65;18.23;;;;;;;;;;7365329;19;20027;-76
2023/12/03 04:13:11;;;;;;;35.65;17.08;;;;;;;;;;7365569;19;20082;-76
2023/12/03 04:15:37;;;;;;;35.58;16.77;;;;;;;;;;7366071;19;20441;-76
2023/12/03 04:18:02;;;;;;;32.95;16.63;;;;;;;;;;7387338;19;20014;-77
2023/12/03 04:20:28;;;;;;;34.85;16.92;;;;;;;;;;7366508;19;20325;-76
2023/12/03 04:22:53;;;;;;;38.33;17.40;;;;;;;;;;7365936;19;20014;-76
2023/12/03 04:25:18;;;;;;;32.13;16.80;;;;;;;;;;7371178;19;20031;-76
2023/12/03 04:27:44;;;;;;;35.13;17.20;;;;;;;;;;7375566;19;20033;-77
2023/12/03 04:30:10;;;;;;;34.78;17.00;;;;;;;;;;7394450;19;20001;-76
2023/12/03 04:32:35;;;;;;;36.03;17.15;;;;;;;;;;7372667;19;20022;-76
2023/12/03 04:35:00;;;;;;;34.60;17.02;;;;;;;;;;7370567;19;20014;-76
2023/12/03 04:37:26;;;;;;;34.90;17.17;;;;;;;;;;7371239;19;20078;-76
2023/12/03 04:39:51;;;;;;;36.78;17.98;;;;;;;;;;7365575;19;20027;-76
2023/12/03 04:42:17;;;;;;;35.45;16.88;;;;;;;;;;7387642;19;20013;-76
2023/12/03 04:44:42;;;;;;;43.28;18.77;;;;;;;;;;7367904;19;20017;-76
2023/12/03 04:47:07;;;;;;;38.40;18.83;;;;;;;;;;7368219;19;20014;-76
2023/12/03 04:49:33;;;;;;;40.33;18.45;;;;;;;;;;7367590;19;20014;-76
2023/12/03 04:51:58;;;;;;;38.25;18.92;;;;;;;;;;7369380;19;20461;-76
2023/12/03 04:54:24;;;;;;;40.95;19.13;;;;;;;;;;7383932;19;20011;-76
2023/12/03 04:56:49;;;;;;;36.50;17.40;;;;;;;;;;7362143;19;20007;-76
2023/12/03 04:59:14;;;;;;;42.78;17.67;;;;;;;;;;7364212;19;20018;-76
2023/12/03 05:01:39;;;;;;;44.05;19.30;;;;;;;;;;7364774;19;20010;-76
2023/12/03 05:04:05;;;;;;;46.90;19.08;;;;;;;;;;7370539;19;20014;-76
2023/12/03 05:06:30;;;;;;;46.72;20.48;;;;;;;;;;7391830;19;20110;-76
2023/12/03 05:08:56;;;;;;;47.60;20.33;;;;;;;;;;7367799;19;20520;-76
2023/12/03 05:11:21;;;;;;;44.90;19.60;;;;;;;;;;7364524;19;20509;-76
2023/12/03 05:13:47;;;;;;;45.63;18.98;;;;;;;;;;7362263;19;20580;-76
2023/12/03 05:16:12;;;;;;;43.90;19.73;;;;;;;;;;7362786;19;20027;-76
2023/12/03 05:18:38;;;;;;;44.00;19.60;;;;;;;;;;7364018;19;20066;-76
2023/12/03 05:21:03;;;;;;;48.30;20.17;;;;;;;;;;7385446;19;20003;-77
2023/12/03 05:23:29;;;;;;;46.22;20.52;;;;;;;;;;7361110;19;20380;-76
2023/12/03 05:25:54;;;;;;;55.25;22.52;;;;;;;;;;7365744;19;20007;-75
2023/12/03 05:28:20;;;;;;;54.35;21.25;;;;;;;;;;7368070;19;20083;-75
2023/12/03 05:30:45;;;;;;;49.22;19.30;;;;;;;;;;7366136;19;20005;-75
2023/12/03 05:33:11;;;;;;;45.78;20.75;;;;;;;;;;7385991;19;20007;-75
2023/12/03 05:35:36;;;;;;;52.28;21.38;;;;;;;;;;7358322;19;20019;-75
2023/12/03 05:38:02;;;;;;;49.38;20.42;;;;;;;;;;7366295;19;20119;-75
2023/12/03 05:40:27;;;;;;;48.80;21.20;;;;;;;;;;7365025;19;20002;-75
2023/12/03 05:42:53;;;;;;;50.72;20.52;;;;;;;;;;7370102;19;19999;-75
2023/12/03 05:45:18;;;;;;;51.97;20.20;;;;;;;;;;7392060;19;20007;-75
2023/12/03 05:47:44;;;;;;;47.47;20.90;;;;;;;;;;7370559;19;20007;-75
2023/12/03 05:50:09;;;;;;;48.75;21.00;;;;;;;;;;7370733;19;20788;-76
2023/12/03 05:52:34;;;;;;;50.55;22.25;;;;;;;;;;7370166;19;20068;-75
2023/12/03 05:55:00;;;;;;;52.35;21.27;;;;;;;;;;7370824;19;20014;-74
2023/12/03 05:57:25;;;;;;;43.85;19.67;;;;;;;;;;7391926;19;20433;-75
2023/12/03 05:59:51;;;;;;;46.05;20.30;;;;;;;;;;7370184;19;20010;-76
2023/12/03 06:02:16;;;;;;;44.92;20.50;;;;;;;;;;7370431;19;20030;-76
2023/12/03 06:04:42;;;;;;;47.97;20.65;;;;;;;;;;7370673;19;20350;-76
2023/12/03 06:07:07;;;;;;;46.42;19.25;;;;;;;;;;7368996;19;20006;-76
2023/12/03 06:09:33;;;;;;;51.85;20.70;;;;;;;;;;7392278;19;19998;-76
2023/12/03 06:11:58;;;;;;;51.00;21.88;;;;;;;;;;7369601;19;20378;-76
2023/12/03 06:14:23;;;;;;;55.50;21.70;;;;;;;;;;7368182;19;20552;-76
2023/12/03 06:16:49;;;;;;;51.13;21.50;;;;;;;;;;7368695;19;20006;-76
2023/12/03 06:19:14;;;;;;;49.42;21.75;;;;;;;;;;7369536;19;20546;-76
2023/12/03 06:21:39;;;;;;;56.00;22.02;;;;;;;;;;7369568;19;19990;-76
2023/12/03 06:24:08;;;;;;;56.83;21.85;;;;;;;;;;7391558;19;20033;-76
2023/12/03 06:26:33;;;;;;;54.00;21.77;;;;;;;;;;7374188;19;20010;-77
2023/12/03 06:28:58;;;;;;;48.65;20.90;;;;;;;;;;7376864;19;20090;-76
2023/12/03 06:31:24;;;;;;;48.20;21.60;;;;;;;;;;7376792;19;20011;-76
2023/12/03 06:33:49;;;;;;;51.40;20.45;;;;;;;;;;7370525;19;20521;-76
2023/12/03 06:36:14;;;;;;;47.97;19.40;;;;;;;;;;7385526;19;20058;-75
2023/12/03 06:38:40;;;;;;;51.00;19.65;;;;;;;;;;7365995;19;20622;-75
2023/12/03 06:41:05;;;;;;;47.75;19.17;;;;;;;;;;7364687;19;20137;-75
2023/12/03 06:43:31;;;;;;;47.75;20.40;;;;;;;;;;7366254;19;20002;-75
2023/12/03 06:45:58;;;;;;;51.95;19.90;;;;;;;;;;7367830;19;20405;-75
2023/12/03 06:48:24;;;;;;;48.35;18.77;;;;;;;;;;7390503;19;19999;-76
2023/12/03 06:50:49;;;;;;;52.13;20.10;;;;;;;;;;7368152;19;20153;-75
2023/12/03 06:53:14;;;;;;;49.65;19.90;;;;;;;;;;7364150;19;20009;-77
2023/12/03 06:55:40;;;;;;;50.00;20.73;;;;;;;;;;7367099;19;20031;-76
2023/12/03 06:58:06;;;;;;;50.28;20.55;;;;;;;;;;7369375;19;20026;-75
2023/12/03 07:00:31;;;;;;;56.42;20.83;;;;;;;;;;7390175;19;20007;-75
2023/12/03 07:02:56;;;;;;;48.30;19.88;;;;;;;;;;7367695;19;20078;-75
2023/12/03 07:05:21;;;;;;;50.05;20.02;;;;;;;;;;7366860;19;20057;-75
2023/12/03 07:07:51;;;;;;;45.25;19.50;;;;;;;;;;7368631;19;20759;-77
2023/12/03 07:10:17;;;;;;;53.13;20.92;;;;;;;;;;7368683;19;20002;-76
2023/12/03 07:12:42;;;;;;;45.83;19.00;;;;;;;;;;7365880;19;20003;-76
2023/12/03 07:15:08;;;;;;;47.80;20.05;;;;;;;;;;7386801;19;20082;-77
2023/12/03 07:17:33;;;;;;;54.13;21.08;;;;;;;;;;7366421;19;20027;-77
2023/12/03 07:19:59;;;;;;;49.15;19.25;;;;;;;;;;7367000;19;20034;-77
2023/12/03 07:22:24;;;;;;;49.08;19.38;;;;;;;;;;7368996;19;20078;-78
2023/12/03 07:24:49;;;;;;;52.90;18.63;;;;;;;;;;7367415;19;20002;-76
2023/12/03 07:27:16;;;;;;;47.47;20.15;;;;;;;;;;7389664;19;20017;-74
2023/12/03 07:29:42;;;;;;;54.45;20.92;;;;;;;;;;7368243;19;20097;-76
2023/12/03 07:32:08;;;;;;;51.38;19.80;;;;;;;;;;7369154;19;20357;-76
2023/12/03 07:34:33;;;;;;;48.17;19.48;;;;;;;;;;7367111;19;20002;-77
2023/12/03 07:36:58;;;;;;;52.00;21.98;;;;;;;;;;7363691;19;20394;-77
2023/12/03 07:39:24;;;;;;;56.03;21.60;;;;;;;;;;7388864;19;20489;-75
2023/12/03 07:41:50;;;;;;;55.17;20.42;;;;;;;;;;7368299;19;20007;-76
2023/12/03 07:44:16;;;;;;;50.20;20.00;;;;;;;;;;7365803;19;20016;-67
2023/12/03 07:46:41;;;;;;;57.75;22.25;;;;;;;;;;7363682;19;20006;-77
2023/12/03 07:49:07;;;;;;;57.40;22.15;;;;;;;;;;7374070;19;20081;-77
2023/12/03 07:51:32;;;;;;;63.63;22.73;;;;;;;;;;7396844;19;20006;-77
2023/12/03 07:53:57;;;;;;;55.38;21.25;;;;;;;;;;7377086;19;20485;-77
2023/12/03 07:56:23;;;;;;;52.20;20.35;;;;;;;;;;7370134;19;20015;-77
2023/12/03 07:58:48;;;;;;;51.60;21.45;;;;;;;;;;7369997;19;19998;-76
2023/12/03 08:01:13;;;;;;;45.38;19.23;;;;;;;;;;7357871;19;20402;-73
2023/12/03 08:03:39;;;;;;;45.97;19.80;;;;;;;;;;7361264;19;20544;-75
2023/12/03 08:06:05;;;;;;;37.35;18.27;;;;;;;;;;7384701;19;20545;-76
2023/12/03 08:08:30;;;;;;;37.75;17.85;;;;;;;;;;7363121;19;20002;-76
2023/12/03 08:10:55;;;;;;;36.05;17.70;;;;;;;;;;7362587;19;20014;-75
2023/12/03 08:13:21;;;;;;;33.15;16.55;;;;;;;;;;7363246;19;20010;-77
2023/12/03 08:15:46;;;;;;;34.70;17.35;;;;;;;;;;7363929;19;20073;-76
2023/12/03 08:18:11;;;;;;;40.80;18.30;;;;;;;;;;7384020;19;20024;-76
2023/12/03 08:20:36;;;;;;;36.17;17.27;;;;;;;;;;7364040;19;20006;-76
2023/12/03 08:23:02;;;;;;;32.03;16.63;;;;;;;;;;7364588;19;20018;-77
2023/12/03 08:25:27;;;;;;;35.30;17.95;;;;;;;;;;7367626;19;20010;-77
2023/12/03 08:27:52;;;;;;;33.65;17.23;;;;;;;;;;7366816;19;20010;-77
2023/12/03 08:30:18;;;;;;;32.10;15.80;;;;;;;;;;7397531;19;20027;-79
2023/12/03 08:32:43;;;;;;;39.58;24.42;;;;;;;;;;7366240;19;20003;-76
2023/12/03 08:35:09;;;;;;;34.22;17.85;;;;;;;;;;7365145;19;20006;-76
2023/12/03 08:37:34;;;;;;;33.25;16.63;;;;;;;;;;7364519;19;20547;-76
2023/12/03 08:39:59;;;;;;;34.15;18.52;;;;;;;;;;7364726;19;21176;-76
2023/12/03 08:42:25;;;;;;;37.10;18.10;;;;;;;;;;7385388;19;20070;-73
2023/12/03 08:44:50;;;;;;;35.55;17.95;;;;;;;;;;7362976;19;20003;-74
2023/12/03 08:47:15;;;;;;;35.25;16.77;;;;;;;;;;7360441;19;20010;-75
2023/12/03 08:49:41;;;;;;;34.92;17.80;;;;;;;;;;7362888;19;20037;-73
2023/12/03 08:52:07;;;;;;;34.97;17.33;;;;;;;;;;7362603;19;20014;-75
2023/12/03 08:54:33;;;;;;;36.47;18.60;;;;;;;;;;7383619;19;20011;-74
2023/12/03 08:56:59;;;;;;;35.67;17.77;;;;;;;;;;7361428;19;20209;-74
2023/12/03 08:59:25;;;;;;;30.95;16.98;;;;;;;;;;7361826;19;20093;-74
2023/12/03 09:01:50;;;;;;;31.17;17.65;;;;;;;;;;7361302;19;20711;-74
2023/12/03 09:04:15;;;;;;;29.65;15.43;;;;;;;;;;7359665;19;20464;-74
2023/12/03 09:06:41;;;;;;;33.92;17.77;;;;;;;;;;7361410;19;20010;-73
2023/12/03 09:09:06;;;;;;;31.27;16.85;;;;;;;;;;7384077;19;20007;-74
2023/12/03 09:11:32;;;;;;;33.60;17.65;;;;;;;;;;7361734;19;20429;-74
2023/12/03 09:13:58;;;;;;;31.58;16.27;;;;;;;;;;7362017;19;20009;-76
2023/12/03 09:16:23;;;;;;;32.83;17.13;;;;;;;;;;7358634;19;20536;-75
2023/12/03 09:18:48;;;;;;;31.95;17.35;;;;;;;;;;7369893;19;20465;-75
2023/12/03 09:21:14;;;;;;;32.60;17.98;;;;;;;;;;7390137;19;20022;-75
2023/12/03 09:23:40;;;;;;;32.92;18.05;;;;;;;;;;7367596;19;20006;-73
2023/12/03 09:26:06;;;;;;;33.53;17.95;;;;;;;;;;7368295;19;20021;-73
2023/12/03 09:28:32;;;;;;;31.38;17.33;;;;;;;;;;7368360;19;20002;-74
2023/12/03 09:30:58;;;;;;;33.95;17.20;;;;;;;;;;7366991;19;20021;-75
2023/12/03 09:33:27;;;;;;;29.48;16.60;;;;;;;;;;7389212;19;19999;-76
2023/12/03 09:35:55;;;;;;;31.88;17.35;;;;;;;;;;7366853;19;20033;-75
2023/12/03 09:38:21;;;;;;;32.53;16.90;;;;;;;;;;7367502;19;20003;-74
2023/12/03 09:40:47;;;;;;;31.13;16.13;;;;;;;;;;7368382;19;20010;-74
2023/12/03 09:43:16;;;;;;;31.13;16.95;;;;;;;;;;7365956;19;20009;-76
2023/12/03 09:45:43;;;;;;;30.42;16.08;;;;;;;;;;7364315;19;20010;-73
2023/12/03 09:48:09;;;;;;;28.17;16.08;;;;;;;;;;7389799;19;20209;-74
2023/12/03 09:50:36;;;;;;;28.02;15.48;;;;;;;;;;7367392;19;20006;-75
2023/12/03 09:53:04;;;;;;;31.67;16.95;;;;;;;;;;7368435;19;20072;-75
2023/12/03 09:55:31;;;;;;;24.25;14.95;;;;;;;;;;7367100;19;20011;-75
2023/12/03 09:57:57;;;;;;;24.63;14.60;;;;;;;;;;7367585;19;20020;-74
2023/12/03 10:00:23;;;;;;;26.45;15.30;;;;;;;;;;7390538;19;20471;-74
2023/12/03 10:02:51;;;;;;;25.50;14.75;;;;;;;;;;7367982;19;20006;-76
2023/12/03 10:05:19;;;;;;;26.95;15.52;;;;;;;;;;7365682;19;20426;-74
2023/12/03 10:07:51;;;;;;;24.60;13.68;;;;;;;;;;7368387;19;20039;-74
2023/12/03 10:10:19;;;;;;;25.50;14.43;;;;;;;;;;7369196;19;20019;-74
2023/12/03 10:12:47;;;;;;;24.63;14.60;;;;;;;;;;7369024;19;20011;-73
2023/12/03 10:15:12;;;;;;;26.25;13.93;;;;;;;;;;7389822;19;20010;-75
2023/12/03 10:17:38;;;;;;;25.38;14.50;;;;;;;;;;7370334;19;20134;-73
2023/12/03 10:20:22;;;;;;;25.63;14.40;;;;;;;;;;7370291;19;20078;-74
2023/12/03 10:22:49;;;;;;;25.83;14.35;;;;;;;;;;7370906;19;20018;-73
2023/12/03 10:25:32;;;;;;;23.33;13.63;;;;;;;;;;7369045;19;20136;-73
2023/12/03 10:28:00;;;;;;;23.85;14.25;;;;;;;;;;7370075;19;20011;-73
2023/12/03 10:30:25;;;;;;;23.85;13.48;;;;;;;;;;7392424;19;20122;-73
2023/12/03 10:32:51;;;;;;;25.05;14.18;;;;;;;;;;7369588;19;20006;-74
2023/12/03 10:35:21;;;;;;;24.33;13.95;;;;;;;;;;7373243;19;20006;-75
2023/12/03 10:37:46;;;;;;;27.25;14.88;;;;;;;;;;7374713;19;20091;-74
2023/12/03 10:40:12;;;;;;;25.42;14.52;;;;;;;;;;7376037;19;20002;-74
2023/12/03 10:42:38;;;;;;;37.15;20.63;;;;;;;;;;7376173;19;20033;-74
2023/12/03 10:45:12;;;;;;;79.80;47.92;;;;;;;;;;7393561;19;20009;-74
2023/12/03 10:47:38;;;;;;;24.63;14.35;;;;;;;;;;7378138;19;20012;-75
2023/12/03 10:50:06;;;;;;;24.88;14.27;;;;;;;;;;7377654;19;20050;-75
2023/12/03 10:52:33;;;;;;;25.02;14.57;;;;;;;;;;7374445;19;20027;-76
2023/12/03 10:54:58;;;;;;;26.10;14.43;;;;;;;;;;7374049;19;20010;-76
2023/12/03 10:57:32;;;;;;;25.13;14.15;;;;;;;;;;7393924;19;20026;-74
2023/12/03 11:00:10;;;;;;;31.63;14.05;;;;;;;;;;7371610;19;20011;-76
2023/12/03 11:02:45;;;;;;;28.58;15.15;;;;;;;;;;7369530;19;20379;-74
2023/12/03 11:05:22;;;;;;;25.67;13.88;;;;;;;;;;7369172;19;20010;-75
2023/12/03 11:07:48;;;;;;;28.95;14.55;;;;;;;;;;7370597;19;20483;-74
2023/12/03 11:10:14;;;;;;;25.55;13.45;;;;;;;;;;7369156;19;20014;-74
2023/12/03 11:12:39;;;;;;;26.33;14.20;;;;;;;;;;7368245;19;20035;-74
2023/12/03 11:15:08;;;;;;;26.95;13.77;;;;;;;;;;7390083;19;20006;-75
2023/12/03 11:17:41;;;;;;;25.35;14.05;;;;;;;;;;7370658;19;20081;-74
2023/12/03 11:20:18;;;;;;;26.58;12.68;;;;;;;;;;7368499;19;20010;-74
2023/12/03 11:23:10;;;;;;;22.95;13.13;;;;;;;;;;7368102;19;20035;-74
2023/12/03 11:25:45;;;;;;;30.35;17.15;;;;;;;;;;7367276;19;20447;-76
2023/12/03 11:28:11;;;;;;;65.63;34.60;;;;;;;;;;7367648;19;20019;-76
2023/12/03 11:30:37;;;;;;;27.67;14.07;;;;;;;;;;7384050;19;20014;-74
2023/12/03 11:33:19;;;;;;;24.42;12.88;;;;;;;;;;7388704;19;20042;-75
2023/12/03 11:35:46;;;;;;;25.05;12.93;;;;;;;;;;7366776;19;20010;-75
2023/12/03 11:38:21;;;;;;;25.45;13.10;;;;;;;;;;7368293;19;20038;-75
2023/12/03 11:40:47;;;;;;;21.58;12.27;;;;;;;;;;7368485;19;20014;-74
2023/12/03 11:43:30;;;;;;;22.48;12.68;;;;;;;;;;7367560;19;20014;-75
2023/12/03 11:45:57;;;;;;;23.60;12.95;;;;;;;;;;7368350;19;20023;-74
2023/12/03 11:48:27;;;;;;;22.52;12.63;;;;;;;;;;7391200;19;20029;-75
2023/12/03 11:50:54;;;;;;;21.77;12.60;;;;;;;;;;7368563;19;20014;-74
2023/12/03 11:53:33;;;;;;;26.67;13.88;;;;;;;;;;7367895;19;20014;-74
2023/12/03 11:55:58;;;;;;;25.35;14.45;;;;;;;;;;7367236;19;20013;-75
2023/12/03 11:58:25;;;;;;;25.90;14.32;;;;;;;;;;7368710;19;20010;-75
2023/12/03 12:00:51;;;;;;;27.60;14.85;;;;;;;;;;7366955;19;20018;-74
2023/12/03 12:03:16;;;;;;;25.20;13.75;;;;;;;;;;7389028;19;20124;-75
2023/12/03 12:05:46;;;;;;;26.20;13.68;;;;;;;;;;7366195;19;20011;-75
2023/12/03 12:08:17;;;;;;;25.70;13.88;;;;;;;;;;7368037;19;20019;-74
2023/12/03 12:10:42;;;;;;;;;;;;;;;;;;7367424;19;20511;-75
2023/12/03 12:13:08;;;;;;;25.83;13.20;;;;;;;;;;7366322;19;19926;-75
2023/12/03 12:15:34;;;;;;;27.35;13.05;;;;;;;;;;7388056;19;20255;-76
2023/12/03 12:17:59;;;;;;;25.58;13.48;;;;;;;;;;7367796;19;20019;-75
2023/12/03 12:20:26;;;;;;;25.67;12.98;;;;;;;;;;7367249;19;20031;-74
2023/12/03 12:22:52;;;;;;;24.98;13.68;;;;;;;;;;7366373;19;20017;-74
2023/12/03 12:25:18;;;;;;;33.97;17.77;;;;;;;;;;7366829;19;20014;-74
2023/12/03 12:27:44;;;;;;;27.77;14.00;;;;;;;;;;7368088;19;20006;-75
2023/12/03 12:30:14;;;;;;;68.32;42.22;;;;;;;;;;7388578;19;20009;-76
2023/12/03 12:32:39;;;;;;;26.25;13.82;;;;;;;;;;7366755;19;20006;-75
2023/12/03 12:35:05;;;;;;;29.23;14.00;;;;;;;;;;7365103;19;20011;-74
2023/12/03 12:37:31;;;;;;;30.70;14.50;;;;;;;;;;7366431;19;20020;-75
2023/12/03 12:40:12;;;;;;;25.80;13.82;;;;;;;;;;7366720;19;20036;-75
2023/12/03 12:42:42;;;;;;;27.58;13.85;;;;;;;;;;7365519;19;20009;-74
2023/12/03 12:45:30;;;;;;;23.85;12.20;;;;;;;;;;7386715;19;20010;-75
2023/12/03 12:47:56;;;;;;;24.60;12.82;;;;;;;;;;7366318;19;20043;-74
2023/12/03 12:50:35;;;;;;;25.75;12.93;;;;;;;;;;7369841;19;20006;-76
2023/12/03 12:53:02;;;;;;;31.35;15.65;;;;;;;;;;7372324;19;20090;-75
2023/12/03 12:55:29;;;;;;;26.40;13.23;;;;;;;;;;7371197;19;19998;-74
2023/12/03 12:57:54;;;;;;;27.50;14.13;;;;;;;;;;7373670;19;20018;-75
2023/12/03 13:00:19;;;;;;;23.70;12.05;;;;;;;;;;7396010;19;20018;-74
2023/12/03 13:02:45;;;;;;;26.67;13.73;;;;;;;;;;7371262;19;20014;-74
2023/12/03 13:05:10;;;;;;;43.50;23.80;;;;;;;;;;7373312;19;20014;-74
2023/12/03 13:07:35;;;;;;;29.05;14.32;;;;;;;;;;7362765;19;20006;-75
2023/12/03 13:10:01;;;;;;;28.15;13.90;;;;;;;;;;7370370;19;20050;-76
2023/12/03 13:12:26;;;;;;;48.47;25.92;;;;;;;;;;7388747;19;20007;-76
2023/12/03 13:14:51;;;;;;;38.53;19.92;;;;;;;;;;7367224;19;20086;-73
2023/12/03 13:17:17;;;;;;;36.17;17.55;;;;;;;;;;7367231;19;20086;-74
2023/12/03 13:19:42;;;;;;;22.38;11.63;;;;;;;;;;7368119;19;20003;-75
2023/12/03 13:22:07;;;;;;;29.63;13.90;;;;;;;;;;7368686;19;20017;-76
2023/12/03 13:24:33;;;;;;;29.90;15.15;;;;;;;;;;7390596;19;20038;-75
2023/12/03 13:26:58;;;;;;;32.70;16.30;;;;;;;;;;7370475;19;20014;-75
2023/12/03 13:29:24;;;;;;;29.95;15.82;;;;;;;;;;7369549;19;20463;-76
2023/12/03 13:31:49;;;;;;;31.02;14.95;;;;;;;;;;7371089;19;20035;-77
2023/12/03 13:34:14;;;;;;;26.77;12.45;;;;;;;;;;7369236;19;20118;-76
2023/12/03 13:36:39;;;;;;;28.60;13.90;;;;;;;;;;7369176;19;20071;-76
2023/12/03 13:39:08;;;;;;;33.92;15.82;;;;;;;;;;7392587;19;20014;-75
2023/12/03 13:41:33;;;;;;;29.75;14.13;;;;;;;;;;7369933;19;20030;-75
2023/12/03 13:43:59;;;;;;;23.80;11.32;;;;;;;;;;7370121;19;20082;-75
2023/12/03 13:46:24;;;;;;;27.70;13.63;;;;;;;;;;7366844;19;20086;-76
2023/12/03 13:48:50;;;;;;;26.83;13.52;;;;;;;;;;7374415;19;20361;-78
2023/12/03 13:51:15;;;;;;;29.55;15.55;;;;;;;;;;7399245;19;20662;-77
2023/12/03 13:53:40;;;;;;;30.33;13.75;;;;;;;;;;7373520;19;20476;-74
2023/12/03 13:56:09;;;;;;;27.73;13.70;;;;;;;;;;7375171;19;20003;-76
2023/12/03 13:58:34;;;;;;;27.73;13.70;;;;;;;;;;7379634;19;20009;-76
2023/12/03 14:01:00;;;;;;;28.50;14.10;;;;;;;;;;7379459;19;20003;-77
2023/12/03 14:03:26;;;;;;;30.27;14.45;;;;;;;;;;7399827;19;20389;-77
2023/12/03 14:05:51;;;;;;;26.65;13.93;;;;;;;;;;7377846;19;19998;-77
2023/12/03 14:08:17;;;;;;;27.90;13.25;;;;;;;;;;7371532;19;19998;-77
2023/12/03 14:10:42;;;;;;;26.17;12.80;;;;;;;;;;7371629;19;20100;-77
2023/12/03 14:13:07;;;;;;;31.90;14.77;;;;;;;;;;7372558;19;20011;-77